Time;durP1;ratioP1;P1;durP2;ratioP2;P2;SDS_P1;SDS_P2;PMS_P1;PMS_P2;Temp;Humidity;BMP_temperature;BMP_pressure;BME280_temperature;BME280_humidity;BME280_pressure;Samples;Min_cycle;Max_cycle;Signal;HPM_P1;HPM_P2
2021/06/02 00:01:12;;;;;;;4.80;4.30;;;17.00;94.40;;;;;;5055441;28;20179;-72
2021/06/02 00:03:39;;;;;;;5.30;4.73;;;17.00;94.70;;;;;;5053891;28;20166;-71
2021/06/02 00:06:05;;;;;;;6.97;4.77;;;16.90;94.70;;;;;;5046433;28;20491;-73
2021/06/02 00:08:33;;;;;;;8.13;4.73;;;16.80;95.10;;;;;;5049093;28;20440;-72
2021/06/02 00:11:00;;;;;;;5.33;4.93;;;16.70;95.40;;;;;;5054372;28;20170;-71
2021/06/02 00:13:25;;;;;;;5.50;4.93;;;16.50;96.00;;;;;;5053974;28;20420;-71
2021/06/02 00:15:51;;;;;;;5.20;4.70;;;16.50;96.30;;;;;;5054262;28;20523;-72
2021/06/02 00:18:17;;;;;;;5.70;4.73;;;16.50;96.60;;;;;;5052234;28;20182;-73
2021/06/02 00:20:42;;;;;;;5.50;4.77;;;16.40;96.70;;;;;;5053610;28;20244;-72
2021/06/02 00:23:08;;;;;;;5.37;4.60;;;16.40;96.70;;;;;;5056005;28;20182;-70
2021/06/02 00:25:33;;;;;;;4.53;4.03;;;16.40;96.60;;;;;;5055774;28;20194;-72
2021/06/02 00:27:59;;;;;;;4.87;4.20;;;16.40;96.30;;;;;;5055686;28;20163;-71
2021/06/02 00:30:25;;;;;;;4.80;4.30;;;16.50;96.20;;;;;;5054031;28;20193;-71
2021/06/02 00:32:55;;;;;;;5.80;5.10;;;16.50;96.30;;;;;;5054027;28;20252;-71
2021/06/02 00:35:21;;;;;;;5.33;4.80;;;16.40;96.70;;;;;;5054948;28;20553;-72
2021/06/02 00:37:48;;;;;;;4.93;4.43;;;16.50;96.90;;;;;;5053448;28;20467;-72
2021/06/02 00:40:27;;;;;;;4.90;4.50;;;16.40;97.00;;;;;;5053212;28;20174;-72
2021/06/02 00:42:53;;;;;;;6.03;4.90;;;16.40;97.10;;;;;;5051932;28;20415;-72
2021/06/02 00:45:20;;;;;;;4.70;4.30;;;16.40;97.30;;;;;;5052882;28;20444;-71
2021/06/02 00:47:46;;;;;;;5.20;4.70;;;16.30;97.30;;;;;;5052990;28;20470;-71
2021/06/02 00:50:13;;;;;;;5.23;4.77;;;16.40;97.30;;;;;;5054318;28;20806;-72
2021/06/02 00:52:41;;;;;;;5.10;4.60;;;16.40;97.30;;;;;;5053108;28;20439;-71
2021/06/02 00:55:07;;;;;;;7.40;4.40;;;16.40;97.20;;;;;;5053406;28;20444;-72
2021/06/02 00:57:33;;;;;;;5.53;4.87;;;16.40;97.20;;;;;;5053220;28;20452;-71
2021/06/02 01:00:06;;;;;;;5.30;4.60;;;16.50;97.50;;;;;;5055623;28;20197;-72
2021/06/02 01:02:34;;;;;;;5.82;5.00;;;16.50;97.20;;;;;;5054420;28;20419;-72
2021/06/02 01:05:00;;;;;;;6.40;5.07;;;16.50;97.20;;;;;;5058812;28;20223;-72
2021/06/02 01:07:27;;;;;;;5.77;4.70;;;16.40;97.10;;;;;;5057095;28;20787;-71
2021/06/02 01:09:58;;;;;;;5.90;5.30;;;16.40;97.10;;;;;;5055666;28;20190;-72
2021/06/02 01:12:26;;;;;;;5.63;4.67;;;16.40;97.00;;;;;;5033614;28;20440;-73
2021/06/02 01:14:53;;;;;;;6.17;5.57;;;16.30;97.00;;;;;;5033523;28;20433;-71
2021/06/02 01:17:24;;;;;;;6.03;5.27;;;16.40;97.00;;;;;;5033467;28;20856;-72
2021/06/02 01:19:52;;;;;;;5.00;4.60;;;16.40;97.00;;;;;;5037193;28;20422;-72
2021/06/02 01:22:17;;;;;;;6.10;5.60;;;16.30;96.90;;;;;;5052499;28;20429;-72
2021/06/02 01:24:43;;;;;;;5.77;5.17;;;16.30;96.80;;;;;;5056586;28;20435;-72
2021/06/02 01:27:12;;;;;;;5.57;5.07;;;16.30;96.80;;;;;;5056760;28;20505;-71
2021/06/02 01:29:41;;;;;;;5.13;4.70;;;16.30;96.70;;;;;;5057053;28;20269;-72
2021/06/02 01:32:22;;;;;;;5.60;5.00;;;16.30;96.60;;;;;;5056704;28;20417;-71
2021/06/02 01:34:57;;;;;;;6.00;4.50;;;16.20;96.60;;;;;;5056428;28;20925;-71
2021/06/02 01:37:43;;;;;;;6.53;4.57;;;16.10;96.80;;;;;;5056221;28;20878;-71
2021/06/02 01:40:35;;;;;;;4.97;4.50;;;16.20;96.90;;;;;;5056550;28;20901;-72
2021/06/02 01:43:31;;;;;;;5.03;4.53;;;16.20;96.80;;;;;;5055654;28;20431;-72
2021/06/02 01:46:18;;;;;;;5.60;5.00;;;16.10;96.80;;;;;;5056415;28;20525;-71
2021/06/02 01:49:10;;;;;;;6.10;5.50;;;16.00;97.00;;;;;;5056457;28;20680;-71
2021/06/02 01:52:13;;;;;;;9.17;5.03;;;15.90;97.20;;;;;;5056728;28;20432;-72
2021/06/02 01:55:00;;;;;;;9.20;5.13;;;15.90;97.30;;;;;;5055920;28;20527;-72
2021/06/02 01:57:50;;;;;;;5.20;4.70;;;15.80;97.20;;;;;;5050736;28;20475;-72
2021/06/02 02:00:43;;;;;;;5.60;5.10;;;15.70;97.40;;;;;;5044575;28;20433;-72
2021/06/02 02:03:27;;;;;;;6.10;5.10;;;15.70;97.50;;;;;;5036061;28;20410;-73
2021/06/02 02:06:11;;;;;;;5.13;4.47;;;15.60;97.70;;;;;;5056509;28;20429;-72
2021/06/02 02:08:51;;;;;;;5.47;4.97;;;15.60;97.90;;;;;;5055881;28;20440;-72
2021/06/02 02:11:41;;;;;;;6.10;5.00;;;15.50;97.90;;;;;;5056180;28;20432;-73
2021/06/02 02:14:14;;;;;;;6.80;5.23;;;15.50;98.00;;;;;;5055341;28;20761;-72
2021/06/02 02:17:01;;;;;;;5.57;5.07;;;15.40;98.10;;;;;;5055789;28;20488;-72
2021/06/02 02:19:42;;;;;;;5.83;5.23;;;15.40;98.20;;;;;;5056712;28;20920;-72
2021/06/02 02:22:32;;;;;;;4.70;4.20;;;15.40;98.30;;;;;;5057271;28;20401;-71
2021/06/02 02:25:09;;;;;;;5.83;5.23;;;15.40;98.40;;;;;;5060905;28;20433;-71
2021/06/02 02:27:48;;;;;;;6.43;5.00;;;15.50;98.30;;;;;;5062773;28;20412;-71
2021/06/02 02:30:22;;;;;;;6.00;5.40;;;15.60;98.10;;;;;;5060240;28;20460;-71
2021/06/02 02:33:01;;;;;;;5.07;4.67;;;15.70;97.90;;;;;;5062304;28;20401;-71
2021/06/02 02:35:58;;;;;;;5.60;5.10;;;15.60;97.60;;;;;;5064980;28;20436;-71
2021/06/02 02:39:12;;;;;;;5.63;5.13;;;15.50;97.80;;;;;;5061016;28;20478;-72
2021/06/02 02:42:03;;;;;;;9.63;4.93;;;15.50;97.90;;;;;;5053735;28;20444;-72
2021/06/02 02:44:55;;;;;;;5.10;4.70;;;15.50;97.90;;;;;;5052710;28;20396;-73
2021/06/02 02:47:32;;;;;;;7.10;5.20;;;15.60;98.10;;;;;;5053044;28;20408;-72
2021/06/02 02:50:09;;;;;;;5.30;4.80;;;15.60;97.80;;;;;;5052360;28;20436;-72
2021/06/02 02:52:41;;;;;;;5.70;5.00;;;15.70;97.80;;;;;;5052696;28;20296;-71
2021/06/02 02:55:13;;;;;;;7.55;5.13;;;15.80;97.70;;;;;;5052523;28;20411;-71
2021/06/02 02:58:01;;;;;;;5.33;4.83;;;15.80;97.50;;;;;;5052480;28;20250;-71
2021/06/02 03:00:43;;;;;;;5.60;4.70;;;15.80;97.40;;;;;;5014344;28;20424;-71
2021/06/02 03:03:29;;;;;;;5.40;4.90;;;15.80;97.30;;;;;;5053144;28;20398;-71
2021/06/02 03:06:12;;;;;;;6.20;5.60;;;15.80;97.20;;;;;;5052645;28;20445;-71
2021/06/02 03:08:48;;;;;;;5.90;5.33;;;15.80;97.30;;;;;;5052258;28;20408;-71
2021/06/02 03:11:20;;;;;;;5.87;5.03;;;15.80;97.20;;;;;;5036553;28;20409;-71
2021/06/02 03:14:16;;;;;;;5.10;4.60;;;15.70;97.30;;;;;;5053351;28;20474;-72
2021/06/02 03:16:49;;;;;;;5.53;5.03;;;15.70;97.60;;;;;;5053005;28;20550;-71
2021/06/02 03:19:18;;;;;;;4.90;4.50;;;15.60;97.90;;;;;;5055255;28;20424;-71
2021/06/02 03:22:00;;;;;;;8.00;5.07;;;15.50;98.30;;;;;;5055485;28;20397;-71
2021/06/02 03:24:39;;;;;;;11.37;6.00;;;15.50;98.30;;;;;;5054535;28;20400;-71
2021/06/02 03:27:17;;;;;;;7.10;5.35;;;15.60;98.20;;;;;;5054377;28;20427;-71
2021/06/02 03:30:12;;;;;;;5.90;5.30;;;15.60;98.20;;;;;;5054882;28;20236;-71
2021/06/02 03:33:16;;;;;;;6.03;5.33;;;15.60;98.10;;;;;;5053071;28;20448;-71
2021/06/02 03:35:57;;;;;;;6.27;4.60;;;15.60;98.10;;;;;;5052018;28;20921;-71
2021/06/02 03:38:51;;;;;;;6.47;5.50;;;15.50;98.40;;;;;;5057602;28;20428;-69
2021/06/02 03:41:35;;;;;;;6.80;5.23;;;15.50;98.30;;;;;;5051969;28;20480;-72
2021/06/02 03:44:28;;;;;;;5.10;4.60;;;15.50;98.40;;;;;;5052405;28;20396;-72
2021/06/02 03:47:32;;;;;;;5.97;4.90;;;15.60;98.30;;;;;;5052195;28;20429;-72
2021/06/02 03:50:38;;;;;;;6.80;5.73;;;15.60;98.00;;;;;;5052081;28;20454;-72
2021/06/02 03:53:22;;;;;;;5.80;5.30;;;15.60;97.90;;;;;;5050749;28;20941;-72
2021/06/02 03:56:18;;;;;;;6.70;5.13;;;15.60;97.90;;;;;;5051696;28;20432;-72
2021/06/02 03:59:01;;;;;;;6.37;5.77;;;15.60;97.90;;;;;;5051120;28;20441;-71
2021/06/02 04:01:33;;;;;;;8.70;5.70;;;15.60;98.00;;;;;;5054905;28;20396;-70
2021/06/02 04:04:04;;;;;;;6.50;5.90;;;15.50;98.20;;;;;;5055165;28;20397;-71
2021/06/02 04:06:55;;;;;;;9.50;6.20;;;15.50;98.40;;;;;;5051484;28;20512;-72
2021/06/02 04:09:26;;;;;;;9.10;6.80;;;15.50;98.50;;;;;;5050720;28;20512;-72
2021/06/02 04:12:19;;;;;;;8.13;6.50;;;15.40;98.50;;;;;;5043013;28;20430;-72
2021/06/02 04:14:54;;;;;;;5.83;5.03;;;15.40;98.50;;;;;;5033642;28;20471;-72
2021/06/02 04:17:22;;;;;;;5.73;5.20;;;15.40;98.40;;;;;;5033905;28;20449;-72
2021/06/02 04:19:49;;;;;;;8.47;5.50;;;15.50;98.40;;;;;;5048292;28;20436;-72
2021/06/02 04:22:21;;;;;;;6.73;5.90;;;15.50;98.50;;;;;;5053654;28;20416;-72
2021/06/02 04:24:49;;;;;;;5.83;5.23;;;15.50;98.50;;;;;;5052927;28;20429;-72
2021/06/02 04:27:18;;;;;;;5.67;5.23;;;15.50;98.50;;;;;;5053862;28;20436;-72
2021/06/02 04:29:46;;;;;;;9.00;6.07;;;15.50;98.50;;;;;;5049137;28;20506;-72
2021/06/02 04:32:12;;;;;;;8.00;6.30;;;15.50;98.50;;;;;;5046759;28;20420;-72
2021/06/02 04:34:38;;;;;;;13.33;6.27;;;15.50;98.50;;;;;;5052543;28;20428;-72
2021/06/02 04:37:06;;;;;;;7.57;6.57;;;15.40;99.10;;;;;;5053830;28;20456;-72
2021/06/02 04:39:33;;;;;;;8.63;6.90;;;15.40;99.60;;;;;;5052949;28;20170;-73
2021/06/02 04:42:01;;;;;;;8.20;6.30;;;15.20;99.70;;;;;;5053210;28;20459;-72
2021/06/02 04:44:28;;;;;;;10.60;6.07;;;15.20;99.80;;;;;;5039258;28;20422;-72
2021/06/02 04:46:54;;;;;;;8.73;6.20;;;15.30;99.80;;;;;;5048572;28;20435;-72
2021/06/02 04:49:27;;;;;;;6.57;5.97;;;15.30;99.70;;;;;;5046359;28;20902;-72
2021/06/02 04:52:02;;;;;;;6.43;5.70;;;15.40;99.60;;;;;;5040348;28;20187;-71
2021/06/02 04:55:00;;;;;;;8.20;6.30;;;15.50;99.50;;;;;;5047654;28;20485;-72
2021/06/02 04:57:48;;;;;;;6.80;6.10;;;15.60;99.30;;;;;;5036210;28;20540;-72
2021/06/02 05:00:43;;;;;;;7.47;5.90;;;15.60;99.10;;;;;;5043166;28;20942;-73
2021/06/02 05:03:46;;;;;;;7.47;6.77;;;15.70;99.00;;;;;;5048848;28;20502;-72
2021/06/02 05:06:55;;;;;;;6.63;5.80;;;15.80;99.40;;;;;;5044149;28;20461;-72
2021/06/02 05:09:58;;;;;;;7.57;6.40;;;15.80;99.40;;;;;;5048507;28;20447;-72
2021/06/02 05:12:57;;;;;;;10.67;9.57;;;15.90;99.30;;;;;;5055736;28;20450;-74
2021/06/02 05:15:56;;;;;;;7.60;6.90;;;15.80;99.30;;;;;;5062534;28;20449;-72
2021/06/02 05:18:34;;;;;;;7.20;6.50;;;15.90;99.20;;;;;;5062471;28;20461;-73
2021/06/02 05:24:10;;;;;;;8.07;6.03;;;16.00;98.70;;;;;;5053986;28;20528;-72
2021/06/02 05:27:24;;;;;;;7.37;6.63;;;16.10;98.60;;;;;;5041138;28;20878;-70
2021/06/02 05:30:08;;;;;;;9.20;8.30;;;16.20;98.50;;;;;;5028391;28;20437;-71
2021/06/02 05:32:49;;;;;;;8.10;6.13;;;16.20;98.30;;;;;;5055594;28;20412;-74
2021/06/02 05:35:26;;;;;;;10.13;8.03;;;16.30;98.10;;;;;;5053700;28;20797;-73
2021/06/02 05:38:19;;;;;;;8.40;6.90;;;16.40;97.90;;;;;;5055911;28;20462;-74
2021/06/02 05:41:07;;;;;;;9.50;7.87;;;16.50;97.90;;;;;;5070506;28;20436;-72
2021/06/02 05:44:04;;;;;;;7.57;6.87;;;16.60;97.90;;;;;;5063586;28;20554;-72
2021/06/02 05:47:07;;;;;;;8.17;7.37;;;16.70;97.90;;;;;;5064288;28;20434;-73
2021/06/02 05:49:52;;;;;;;9.53;7.50;;;16.80;97.80;;;;;;5073878;28;20776;-73
2021/06/02 05:52:38;;;;;;;7.20;6.50;;;16.80;97.70;;;;;;5069202;28;20428;-73
2021/06/02 05:55:10;;;;;;;7.83;6.90;;;16.90;97.60;;;;;;5065691;28;20478;-73
2021/06/02 05:58:16;;;;;;;15.33;7.17;;;17.00;97.50;;;;;;5067710;28;20486;-72
2021/06/02 06:01:16;;;;;;;9.00;7.80;;;17.10;97.50;;;;;;5069816;28;20481;-74
2021/06/02 06:04:04;;;;;;;7.70;6.90;;;17.20;97.40;;;;;;5055732;28;20181;-74
2021/06/02 06:06:42;;;;;;;9.35;7.57;;;17.20;97.30;;;;;;5055490;28;20840;-73
2021/06/02 06:09:16;;;;;;;8.07;7.27;;;17.40;97.20;;;;;;5054726;28;20189;-73
2021/06/02 06:11:45;;;;;;;7.37;6.53;;;17.40;97.00;;;;;;5052630;28;20511;-73
2021/06/02 06:14:31;;;;;;;7.27;5.90;;;17.60;96.90;;;;;;5054246;28;20894;-73
2021/06/02 06:17:09;;;;;;;8.90;8.00;;;17.60;96.70;;;;;;5053849;28;20483;-73
2021/06/02 06:19:48;;;;;;;8.80;6.90;;;17.70;96.60;;;;;;5054289;28;20467;-72
2021/06/02 06:22:19;;;;;;;6.63;5.80;;;17.80;96.50;;;;;;5054881;28;20424;-72
2021/06/02 06:25:01;;;;;;;9.00;7.07;;;17.90;96.30;;;;;;5055921;28;20789;-73
2021/06/02 06:27:40;;;;;;;9.00;7.13;;;18.00;96.20;;;;;;5052689;28;20995;-74
2021/06/02 06:30:19;;;;;;;9.27;6.53;;;18.10;96.10;;;;;;5057041;28;20800;-72
2021/06/02 06:32:49;;;;;;;8.37;6.87;;;18.20;96.00;;;;;;5063649;28;20424;-73
2021/06/02 06:35:16;;;;;;;8.40;6.63;;;18.30;95.90;;;;;;5068892;28;20459;-73
2021/06/02 06:37:48;;;;;;;8.73;6.07;;;18.40;95.80;;;;;;5057162;28;20491;-72
2021/06/02 06:40:23;;;;;;;10.95;6.70;;;18.50;95.70;;;;;;5049053;28;20916;-72
2021/06/02 06:42:53;;;;;;;11.30;6.80;;;18.60;95.50;;;;;;5063986;28;20220;-76
2021/06/02 06:45:27;;;;;;;8.25;5.80;;;18.70;95.30;;;;;;5061568;28;20912;-72
2021/06/02 06:47:53;;;;;;;6.73;6.10;;;18.80;95.10;;;;;;5073011;28;20272;-71
2021/06/02 06:50:20;;;;;;;8.83;6.20;;;19.00;95.00;;;;;;5051826;28;20540;-71
2021/06/02 06:52:51;;;;;;;10.97;6.17;;;19.00;94.90;;;;;;5061105;28;20417;-70
2021/06/02 06:55:17;;;;;;;6.20;5.47;;;19.20;94.70;;;;;;5055361;28;20447;-71
2021/06/02 06:57:45;;;;;;;7.77;5.93;;;19.30;94.60;;;;;;5053074;28;20441;-73
2021/06/02 07:00:12;;;;;;;6.80;5.67;;;19.50;94.50;;;;;;5052900;28;20669;-71
2021/06/02 07:02:39;;;;;;;9.33;6.40;;;19.60;94.20;;;;;;5051658;28;20534;-71
2021/06/02 07:05:06;;;;;;;6.90;5.37;;;19.70;93.80;;;;;;5053488;28;20520;-73
2021/06/02 07:07:34;;;;;;;5.87;5.00;;;19.80;93.40;;;;;;5059715;28;20523;-72
2021/06/02 07:09:59;;;;;;;7.87;5.43;;;19.90;93.20;;;;;;5055709;28;20405;-72
2021/06/02 07:12:26;;;;;;;5.43;4.97;;;20.00;92.60;;;;;;5054820;28;20542;-74
2021/06/02 07:14:53;;;;;;;5.90;5.03;;;20.10;92.00;;;;;;5055257;28;20209;-72
2021/06/02 07:17:21;;;;;;;5.00;4.50;;;20.30;91.50;;;;;;5062242;28;20448;-70
2021/06/02 07:19:51;;;;;;;6.23;4.50;;;20.40;90.40;;;;;;5057716;28;20409;-71
2021/06/02 07:22:21;;;;;;;5.60;4.17;;;20.50;89.00;;;;;;5055029;28;20936;-71
2021/06/02 07:24:48;;;;;;;4.57;3.63;;;20.60;86.60;;;;;;5054774;28;20948;-72
2021/06/02 07:27:16;;;;;;;3.73;3.37;;;20.70;84.60;;;;;;5055608;28;20484;-71
2021/06/02 07:29:42;;;;;;;8.70;4.30;;;20.90;83.20;;;;;;5054945;28;20412;-72
2021/06/02 07:32:08;;;;;;;4.30;3.90;;;21.10;82.70;;;;;;5054492;28;20428;-73
2021/06/02 07:34:34;;;;;;;4.90;3.80;;;21.20;82.10;;;;;;5054456;28;20452;-71
2021/06/02 07:36:59;;;;;;;4.20;3.80;;;21.30;80.50;;;;;;5055508;28;20190;-72
2021/06/02 07:39:25;;;;;;;4.00;3.70;;;21.50;79.20;;;;;;5057168;28;20166;-73
2021/06/02 07:41:51;;;;;;;4.20;3.80;;;21.50;78.40;;;;;;5055474;28;20197;-74
2021/06/02 07:44:16;;;;;;;6.40;4.10;;;21.60;76.90;;;;;;5053988;28;20285;-72
2021/06/02 07:46:42;;;;;;;4.30;3.90;;;21.70;77.10;;;;;;5054343;28;20167;-72
2021/06/02 07:49:08;;;;;;;3.80;3.50;;;21.80;75.70;;;;;;5053371;28;20174;-71
2021/06/02 07:51:34;;;;;;;4.77;4.37;;;21.90;73.40;;;;;;5055189;28;20529;-72
2021/06/02 07:53:59;;;;;;;4.17;3.77;;;22.10;73.90;;;;;;5054064;28;20427;-72
2021/06/02 07:56:25;;;;;;;4.47;3.80;;;22.20;72.70;;;;;;5054562;28;20464;-72
2021/06/02 07:58:51;;;;;;;4.00;3.47;;;22.20;71.40;;;;;;5054173;28;20193;-73
2021/06/02 08:01:17;;;;;;;3.50;3.20;;;22.30;69.90;;;;;;5054641;28;20178;-72
2021/06/02 08:03:42;;;;;;;4.17;3.70;;;22.40;67.90;;;;;;5054787;28;20244;-73
2021/06/02 08:06:08;;;;;;;5.57;3.30;;;22.50;65.70;;;;;;5054024;28;20201;-72
2021/06/02 08:08:34;;;;;;;3.40;3.10;;;22.60;63.80;;;;;;5054139;28;20181;-72
2021/06/02 08:10:59;;;;;;;4.30;3.60;;;22.70;63.20;;;;;;5053824;28;20547;-72
2021/06/02 08:13:25;;;;;;;4.80;3.83;;;22.80;61.90;;;;;;5054276;28;20181;-72
2021/06/02 08:15:51;;;;;;;4.30;3.60;;;22.80;60.20;;;;;;5053603;28;20194;-72
2021/06/02 08:18:16;;;;;;;4.07;3.67;;;23.00;61.00;;;;;;5055095;28;20257;-71
2021/06/02 08:20:42;;;;;;;5.03;3.83;;;23.10;61.30;;;;;;5055065;28;20628;-72
2021/06/02 08:23:08;;;;;;;5.93;3.07;;;23.20;60.50;;;;;;5051937;28;20178;-72
2021/06/02 08:25:34;;;;;;;3.73;3.50;;;23.20;59.80;;;;;;5037243;28;20430;-74
2021/06/02 08:28:00;;;;;;;3.90;3.37;;;23.30;59.60;;;;;;5048286;28;20462;-72
2021/06/02 08:30:27;;;;;;;3.80;2.90;;;23.40;59.40;;;;;;5055410;28;20325;-73
2021/06/02 08:32:52;;;;;;;5.10;3.70;;;23.50;59.30;;;;;;5044200;28;20406;-73
2021/06/02 08:35:18;;;;;;;4.47;3.80;;;23.50;58.00;;;;;;5061413;28;20220;-73
2021/06/02 08:37:45;;;;;;;4.23;3.40;;;23.50;58.10;;;;;;5050495;28;20212;-73
2021/06/02 08:40:13;;;;;;;3.60;3.30;;;23.50;57.90;;;;;;5066700;28;20431;-73
2021/06/02 08:42:47;;;;;;;6.30;3.50;;;23.70;58.00;;;;;;5088145;28;20424;-73
2021/06/02 08:45:15;;;;;;;4.90;3.30;;;23.70;57.10;;;;;;5083530;28;20418;-73
2021/06/02 08:47:42;;;;;;;6.53;4.17;;;23.90;57.60;;;;;;5066185;28;20428;-71
2021/06/02 08:50:10;;;;;;;5.10;3.57;;;24.00;56.80;;;;;;5064754;28;20477;-72
2021/06/02 08:52:40;;;;;;;3.67;3.27;;;24.10;55.90;;;;;;5047879;28;20518;-72
2021/06/02 08:55:08;;;;;;;4.43;3.13;;;24.20;55.60;;;;;;5055587;28;20491;-72
2021/06/02 08:57:38;;;;;;;4.80;3.60;;;24.20;55.40;;;;;;5061813;28;20916;-72
2021/06/02 09:00:06;;;;;;;3.40;3.10;;;24.30;55.20;;;;;;5045184;28;20426;-72
2021/06/02 09:02:31;;;;;;;6.90;3.73;;;24.40;54.80;;;;;;5055203;28;20889;-72
2021/06/02 09:04:57;;;;;;;3.30;3.03;;;24.40;54.10;;;;;;5068318;28;20481;-73
2021/06/02 09:07:25;;;;;;;5.83;3.17;;;24.40;53.70;;;;;;5069165;28;20180;-72
2021/06/02 09:09:52;;;;;;;4.17;2.73;;;24.50;53.50;;;;;;5066022;28;20215;-72
2021/06/02 09:12:32;;;;;;;8.33;3.87;;;24.60;53.10;;;;;;5075177;28;20472;-72
2021/06/02 09:15:19;;;;;;;5.00;2.93;;;24.60;52.50;;;;;;5026478;28;20504;-73
2021/06/02 09:18:05;;;;;;;4.00;3.70;;;24.70;52.70;;;;;;5054643;28;20466;-72
2021/06/02 09:20:52;;;;;;;4.70;2.97;;;24.80;52.00;;;;;;5049599;28;20793;-72
2021/06/02 09:23:29;;;;;;;4.47;3.17;;;24.80;51.70;;;;;;5076480;28;20430;-73
2021/06/02 09:25:58;;;;;;;4.93;3.60;;;24.80;51.60;;;;;;5080416;28;20948;-73
2021/06/02 09:28:48;;;;;;;6.67;3.63;;;24.70;51.40;;;;;;5076503;28;20434;-73
2021/06/02 09:31:20;;;;;;;3.80;3.50;;;24.70;50.80;;;;;;5067790;28;20449;-74
2021/06/02 09:33:46;;;;;;;3.53;3.20;;;24.90;50.70;;;;;;5075248;28;20422;-73
2021/06/02 09:36:11;;;;;;;3.90;3.30;;;24.90;50.30;;;;;;5039636;28;20477;-73
2021/06/02 09:38:37;;;;;;;4.20;2.90;;;25.00;50.00;;;;;;5044225;28;20420;-72
2021/06/02 09:41:02;;;;;;;3.60;2.90;;;25.10;49.50;;;;;;5046217;28;20436;-73
2021/06/02 09:43:32;;;;;;;3.43;3.00;;;25.10;49.70;;;;;;5059929;28;20725;-73
2021/06/02 09:46:05;;;;;;;3.20;3.00;;;25.00;49.70;;;;;;5071656;28;20952;-72
2021/06/02 09:48:41;;;;;;;3.13;2.67;;;25.10;49.70;;;;;;5039959;28;21039;-72
2021/06/02 09:51:26;;;;;;;4.93;3.77;;;25.10;49.30;;;;;;5060168;28;20410;-72
2021/06/02 09:53:56;;;;;;;5.33;2.77;;;25.10;49.30;;;;;;5072118;28;20419;-72
2021/06/02 09:56:37;;;;;;;6.67;3.10;;;25.10;48.80;;;;;;5072850;28;20470;-73
2021/06/02 09:59:08;;;;;;;6.23;2.93;;;25.20;48.70;;;;;;5065160;28;20460;-74
2021/06/02 10:01:56;;;;;;;5.43;3.00;;;25.10;48.50;;;;;;5058397;28;20547;-73
2021/06/02 10:04:38;;;;;;;3.77;2.93;;;25.10;48.10;;;;;;5070703;28;20415;-73
2021/06/02 10:07:16;;;;;;;5.53;3.33;;;25.20;48.40;;;;;;5071767;28;20439;-73
2021/06/02 10:09:41;;;;;;;3.50;3.17;;;25.10;48.30;;;;;;5067177;28;20434;-72
2021/06/02 10:12:11;;;;;;;3.40;3.10;;;25.20;48.30;;;;;;5057861;28;20415;-72
2021/06/02 10:14:59;;;;;;;3.50;3.20;;;25.20;48.10;;;;;;5071014;28;20197;-74
2021/06/02 10:17:25;;;;;;;4.97;3.17;;;25.30;48.00;;;;;;5071092;28;20566;-74
2021/06/02 10:19:52;;;;;;;3.43;3.13;;;25.30;47.40;;;;;;5071618;28;20456;-73
2021/06/02 10:22:18;;;;;;;3.80;3.13;;;25.30;47.50;;;;;;5063272;28;20417;-73
2021/06/02 10:24:44;;;;;;;3.20;2.90;;;25.30;47.70;;;;;;5071604;28;20486;-73
2021/06/02 10:27:10;;;;;;;3.53;3.23;;;25.30;47.90;;;;;;5069037;28;20791;-73
2021/06/02 10:29:35;;;;;;;3.80;3.50;;;25.30;48.00;;;;;;5070651;28;20419;-72
2021/06/02 10:32:01;;;;;;;4.80;3.20;;;25.40;47.80;;;;;;5068668;28;20184;-73
2021/06/02 10:34:26;;;;;;;6.43;3.63;;;25.30;48.20;;;;;;5052695;28;20234;-72
2021/06/02 10:36:52;;;;;;;3.20;2.90;;;25.30;48.40;;;;;;5047405;28;20544;-73
2021/06/02 10:39:20;;;;;;;4.70;3.40;;;25.30;48.20;;;;;;5053451;28;20314;-72
2021/06/02 10:41:52;;;;;;;2.77;2.53;;;25.40;47.80;;;;;;5070877;28;20420;-73
2021/06/02 10:44:22;;;;;;;2.70;2.50;;;25.40;48.20;;;;;;5057002;28;20421;-72
2021/06/02 10:46:50;;;;;;;4.60;3.20;;;25.40;47.80;;;;;;5070726;28;20427;-73
2021/06/02 10:49:15;;;;;;;2.80;2.60;;;25.40;46.90;;;;;;5069447;28;20815;-73
2021/06/02 10:51:43;;;;;;;3.43;3.13;;;25.40;46.60;;;;;;5069664;28;20524;-73
2021/06/02 10:54:13;;;;;;;3.90;3.47;;;25.40;46.40;;;;;;5060399;28;20194;-72
2021/06/02 10:56:59;;;;;;;3.43;3.13;;;25.40;46.90;;;;;;5070321;28;20511;-73
2021/06/02 10:59:35;;;;;;;5.20;3.07;;;25.40;47.50;;;;;;5068497;28;20594;-73
2021/06/02 11:02:08;;;;;;;3.20;2.90;;;25.30;47.30;;;;;;5070276;28;20407;-74
2021/06/02 11:04:36;;;;;;;3.40;3.00;;;25.30;47.80;;;;;;5041476;28;20423;-73
2021/06/02 11:07:20;;;;;;;3.50;3.20;;;25.30;47.50;;;;;;5069557;28;20510;-73
2021/06/02 11:09:53;;;;;;;3.83;3.10;;;25.30;47.70;;;;;;5065546;28;20431;-72
2021/06/02 11:12:18;;;;;;;3.30;3.00;;;25.20;47.50;;;;;;5069795;28;20419;-75
2021/06/02 11:14:44;;;;;;;3.23;2.90;;;25.20;47.50;;;;;;5065232;28;20448;-72
2021/06/02 11:17:16;;;;;;;3.57;3.20;;;25.20;47.60;;;;;;5057363;28;20227;-73
2021/06/02 11:19:50;;;;;;;3.63;2.90;;;25.20;47.70;;;;;;5069824;28;20830;-72
2021/06/02 11:22:27;;;;;;;3.73;3.33;;;25.30;48.10;;;;;;5069091;28;20433;-72
2021/06/02 11:24:55;;;;;;;5.10;2.80;;;25.30;48.00;;;;;;5068485;28;20471;-72
2021/06/02 11:27:21;;;;;;;3.73;3.10;;;25.40;47.30;;;;;;5060838;28;20430;-72
2021/06/02 11:29:52;;;;;;;3.43;3.13;;;25.30;47.00;;;;;;5069296;28;20419;-72
2021/06/02 11:32:19;;;;;;;6.90;3.20;;;25.30;47.00;;;;;;5069456;28;20650;-73
2021/06/02 11:34:51;;;;;;;3.00;2.80;;;25.30;47.30;;;;;;5067976;28;20444;-73
2021/06/02 11:37:28;;;;;;;4.80;3.10;;;25.30;47.10;;;;;;5065644;28;20470;-73
2021/06/02 11:39:56;;;;;;;2.73;2.53;;;25.30;47.70;;;;;;5067829;28;20561;-71
2021/06/02 11:42:46;;;;;;;4.33;3.83;;;25.40;47.10;;;;;;5068993;28;20462;-74
2021/06/02 11:45:24;;;;;;;3.42;3.13;;;25.30;47.10;;;;;;5068615;28;20442;-71
2021/06/02 11:47:52;;;;;;;8.90;3.70;;;25.30;47.70;;;;;;5056380;28;20197;-73
2021/06/02 11:50:20;;;;;;;6.03;3.53;;;25.30;48.20;;;;;;5045288;28;20452;-72
2021/06/02 11:52:55;;;;;;;4.33;4.00;;;25.30;48.30;;;;;;5046100;28;20432;-72
2021/06/02 11:55:21;;;;;;;5.00;3.53;;;25.30;48.60;;;;;;5059940;28;20534;-71
2021/06/02 11:57:50;;;;;;;3.50;3.20;;;25.30;48.40;;;;;;5061513;28;20463;-72
2021/06/02 12:00:24;;;;;;;3.40;3.10;;;25.30;48.70;;;;;;5067415;28;20427;-73
2021/06/02 12:02:59;;;;;;;5.90;3.20;;;25.30;48.50;;;;;;5068624;28;20502;-73
2021/06/02 12:05:29;;;;;;;6.33;3.00;;;25.30;47.90;;;;;;5048273;28;20457;-73
2021/06/02 12:07:58;;;;;;;5.53;2.90;;;25.30;48.00;;;;;;5040554;28;20432;-74
2021/06/02 12:10:33;;;;;;;3.00;2.60;;;25.30;47.90;;;;;;5052094;28;20437;-74
2021/06/02 12:13:00;;;;;;;3.10;2.90;;;25.30;48.00;;;;;;5056274;28;20670;-73
2021/06/02 12:15:38;;;;;;;3.55;2.95;;;25.20;48.60;;;;;;5050721;28;20517;-73
2021/06/02 12:18:04;;;;;;;6.10;3.13;;;25.20;49.10;;;;;;5038375;28;20265;-72
2021/06/02 12:20:31;;;;;;;3.60;2.83;;;25.30;49.50;;;;;;5046884;28;20452;-72
2021/06/02 12:22:57;;;;;;;5.40;3.30;;;25.30;49.20;;;;;;5057048;28;20424;-73
2021/06/02 12:25:25;;;;;;;6.47;3.00;;;25.30;49.40;;;;;;5050802;28;20782;-73
2021/06/02 12:27:55;;;;;;;5.50;3.37;;;25.30;48.90;;;;;;5058816;28;20182;-73
2021/06/02 12:30:26;;;;;;;4.17;3.23;;;25.30;48.80;;;;;;5067668;28;20500;-72
2021/06/02 12:32:56;;;;;;;3.70;3.40;;;25.40;48.90;;;;;;5068253;28;20573;-73
2021/06/02 12:35:30;;;;;;;3.10;2.90;;;25.30;49.50;;;;;;5068524;28;20866;-74
2021/06/02 12:38:20;;;;;;;4.20;3.40;;;25.20;48.90;;;;;;5062752;28;20466;-74
2021/06/02 12:40:50;;;;;;;3.67;3.00;;;25.10;48.20;;;;;;5039795;28;20915;-72
2021/06/02 12:43:19;;;;;;;3.27;2.90;;;25.20;48.70;;;;;;5066996;28;20455;-72
2021/06/02 12:45:46;;;;;;;2.77;2.57;;;25.30;48.50;;;;;;5068711;28;20448;-73
2021/06/02 12:48:14;;;;;;;3.10;2.67;;;25.30;47.90;;;;;;5067836;28;20924;-73
2021/06/02 12:50:48;;;;;;;6.03;2.87;;;25.30;48.00;;;;;;5055529;28;20459;-72
2021/06/02 12:53:18;;;;;;;4.37;4.03;;;25.20;47.00;;;;;;5069176;28;20415;-72
2021/06/02 12:55:49;;;;;;;4.10;3.50;;;25.30;47.20;;;;;;5068368;28;20471;-72
2021/06/02 12:58:19;;;;;;;6.23;3.20;;;25.30;47.10;;;;;;5067576;28;20483;-73
2021/06/02 13:00:46;;;;;;;3.70;3.20;;;25.40;47.80;;;;;;5055531;28;20427;-72
2021/06/02 13:03:14;;;;;;;3.30;3.00;;;25.50;48.70;;;;;;5047342;28;20428;-70
2021/06/02 13:05:44;;;;;;;3.50;3.20;;;25.40;49.80;;;;;;5068512;28;20443;-71
2021/06/02 13:08:11;;;;;;;4.33;2.70;;;25.40;49.90;;;;;;5059474;28;20504;-71
2021/06/02 13:10:38;;;;;;;3.35;3.05;;;25.30;49.80;;;;;;5061698;28;20456;-71
2021/06/02 13:13:08;;;;;;;4.07;3.67;;;25.30;50.10;;;;;;5067861;28;20188;-74
2021/06/02 13:15:39;;;;;;;3.30;3.00;;;25.40;50.10;;;;;;5061142;28;20543;-73
2021/06/02 13:18:06;;;;;;;3.00;2.70;;;25.50;48.10;;;;;;5063844;28;20474;-72
2021/06/02 13:20:40;;;;;;;3.10;2.70;;;25.60;47.90;;;;;;5067436;28;20424;-73
2021/06/02 13:23:20;;;;;;;3.43;3.13;;;25.80;47.60;;;;;;5060034;28;20510;-72
2021/06/02 13:26:07;;;;;;;5.10;2.80;;;25.90;47.10;;;;;;5083423;28;20555;-72